sensor_id;sensor_type;location;lat;lon;timestamp;pressure;altitude;pressure_sealevel;temperature;humidity
53900;BME280;40509;32.858;-116.858;2023-05-08T00:00:40;98196.91;;;21.51;40.02
53900;BME280;40509;32.858;-116.858;2023-05-08T00:03:07;98204.16;;;21.30;40.24
53900;BME280;40509;32.858;-116.858;2023-05-08T00:05:35;98199.41;;;21.43;40.13
53900;BME280;40509;32.858;-116.858;2023-05-08T00:08:02;98195.97;;;21.43;40.07
53900;BME280;40509;32.858;-116.858;2023-05-08T00:10:29;98196.50;;;21.46;40.05
53900;BME280;40509;32.858;-116.858;2023-05-08T00:12:56;98201.53;;;21.30;40.44
53900;BME280;40509;32.858;-116.858;2023-05-08T00:15:24;98191.16;;;21.38;40.64
53900;BME280;40509;32.858;-116.858;2023-05-08T00:17:51;98196.78;;;21.43;40.60
53900;BME280;40509;32.858;-116.858;2023-05-08T00:20:19;98190.75;;;21.33;40.87
53900;BME280;40509;32.858;-116.858;2023-05-08T00:22:46;98192.25;;;21.35;41.06
53900;BME280;40509;32.858;-116.858;2023-05-08T00:25:13;98195.16;;;21.32;41.30
53900;BME280;40509;32.858;-116.858;2023-05-08T00:27:40;98190.75;;;21.33;41.27
53900;BME280;40509;32.858;-116.858;2023-05-08T00:30:08;98190.91;;;21.21;41.48
53900;BME280;40509;32.858;-116.858;2023-05-08T00:32:35;98184.69;;;21.22;41.55
53900;BME280;40509;32.858;-116.858;2023-05-08T00:35:03;98190.78;;;21.23;41.95
53900;BME280;40509;32.858;-116.858;2023-05-08T00:37:30;98193.66;;;21.20;41.97
53900;BME280;40509;32.858;-116.858;2023-05-08T00:39:59;98193.28;;;21.05;42.26
53900;BME280;40509;32.858;-116.858;2023-05-08T00:42:27;98189.03;;;21.04;42.44
53900;BME280;40509;32.858;-116.858;2023-05-08T00:44:54;98184.31;;;21.08;42.21
53900;BME280;40509;32.858;-116.858;2023-05-08T00:47:21;98189.53;;;21.17;42.21
53900;BME280;40509;32.858;-116.858;2023-05-08T00:49:49;98186.97;;;20.98;42.81
53900;BME280;40509;32.858;-116.858;2023-05-08T00:52:17;98188.22;;;20.84;42.82
53900;BME280;40509;32.858;-116.858;2023-05-08T00:54:45;98178.38;;;20.96;42.78
53900;BME280;40509;32.858;-116.858;2023-05-08T00:57:13;98186.44;;;20.75;42.96
53900;BME280;40509;32.858;-116.858;2023-05-08T00:59:41;98188.38;;;20.82;43.01
53900;BME280;40509;32.858;-116.858;2023-05-08T01:02:11;98188.38;;;20.82;43.21
53900;BME280;40509;32.858;-116.858;2023-05-08T01:04:41;98190.00;;;20.83;43.21
53900;BME280;40509;32.858;-116.858;2023-05-08T01:07:10;98176.78;;;20.85;43.33
53900;BME280;40509;32.858;-116.858;2023-05-08T01:09:38;98180.06;;;20.87;43.33
53900;BME280;40509;32.858;-116.858;2023-05-08T01:20:45;98185.31;;;20.67;44.08
53900;BME280;40509;32.858;-116.858;2023-05-08T01:29:37;98181.16;;;20.55;45.14
53900;BME280;40509;32.858;-116.858;2023-05-08T01:32:24;98184.91;;;20.52;45.19
53900;BME280;40509;32.858;-116.858;2023-05-08T01:37:52;98188.78;;;20.58;45.84
53900;BME280;40509;32.858;-116.858;2023-05-08T01:40:27;98190.41;;;20.39;46.31
53900;BME280;40509;32.858;-116.858;2023-05-08T01:45:49;98193.59;;;20.33;46.43
53900;BME280;40509;32.858;-116.858;2023-05-08T01:48:39;98195.53;;;20.31;47.02
53900;BME280;40509;32.858;-116.858;2023-05-08T01:51:16;98191.38;;;20.29;46.92
53900;BME280;40509;32.858;-116.858;2023-05-08T01:53:50;98188.22;;;20.35;46.84
53900;BME280;40509;32.858;-116.858;2023-05-08T01:56:21;98189.41;;;20.11;47.29
53900;BME280;40509;32.858;-116.858;2023-05-08T01:58:51;98182.41;;;20.21;46.96
53900;BME280;40509;32.858;-116.858;2023-05-08T02:01:22;98194.13;;;20.17;47.39
53900;BME280;40509;32.858;-116.858;2023-05-08T02:03:51;98198.81;;;20.14;47.33
53900;BME280;40509;32.858;-116.858;2023-05-08T02:06:24;98191.88;;;20.03;47.95
53900;BME280;40509;32.858;-116.858;2023-05-08T02:08:53;98194.22;;;20.06;48.20
53900;BME280;40509;32.858;-116.858;2023-05-08T02:11:23;98194.22;;;20.06;48.22
53900;BME280;40509;32.858;-116.858;2023-05-08T02:13:53;98191.06;;;19.93;48.98
53900;BME280;40509;32.858;-116.858;2023-05-08T02:16:22;98187.44;;;19.94;48.60
53900;BME280;40509;32.858;-116.858;2023-05-08T02:18:54;98188.69;;;19.90;48.86
53900;BME280;40509;32.858;-116.858;2023-05-08T02:21:24;98192.41;;;19.87;48.89
53900;BME280;40509;32.858;-116.858;2023-05-08T02:23:55;98180.81;;;19.90;48.58
53900;BME280;40509;32.858;-116.858;2023-05-08T02:26:25;98189.38;;;19.92;48.44
53900;BME280;40509;32.858;-116.858;2023-05-08T02:28:55;98197.09;;;19.83;49.05
53900;BME280;40509;32.858;-116.858;2023-05-08T02:31:24;98192.81;;;19.82;48.50
53900;BME280;40509;32.858;-116.858;2023-05-08T02:33:53;98200.03;;;20.10;48.74
53900;BME280;40509;32.858;-116.858;2023-05-08T02:36:22;98192.03;;;20.21;48.27
53900;BME280;40509;32.858;-116.858;2023-05-08T02:38:52;98197.19;;;20.42;48.12
53900;BME280;40509;32.858;-116.858;2023-05-08T02:41:25;98206.69;;;20.63;47.93
53900;BME280;40509;32.858;-116.858;2023-05-08T02:43:55;98204.81;;;20.75;47.95
53900;BME280;40509;32.858;-116.858;2023-05-08T02:49:11;98210.03;;;20.84;47.82
53900;BME280;40509;32.858;-116.858;2023-05-08T02:52:09;98210.75;;;20.86;48.55
53900;BME280;40509;32.858;-116.858;2023-05-08T03:00:11;98220.63;;;21.02;48.51
53900;BME280;40509;32.858;-116.858;2023-05-08T03:02:47;98219.53;;;21.05;48.27
53900;BME280;40509;32.858;-116.858;2023-05-08T03:05:19;98218.72;;;21.04;48.46
53900;BME280;40509;32.858;-116.858;2023-05-08T03:07:51;98229.06;;;21.06;48.53
53900;BME280;40509;32.858;-116.858;2023-05-08T03:10:26;98221.59;;;21.11;48.90
53900;BME280;40509;32.858;-116.858;2023-05-08T03:12:56;98227.53;;;21.13;48.43
53900;BME280;40509;32.858;-116.858;2023-05-08T03:15:31;98226.16;;;21.09;48.74
53900;BME280;40509;32.858;-116.858;2023-05-08T03:18:07;98228.13;;;21.07;49.35
53900;BME280;40509;32.858;-116.858;2023-05-08T03:20:40;98227.81;;;21.10;49.02
53900;BME280;40509;32.858;-116.858;2023-05-08T03:23:12;98233.22;;;21.09;49.48
53900;BME280;40509;32.858;-116.858;2023-05-08T03:25:42;98235.56;;;21.12;49.32
53900;BME280;40509;32.858;-116.858;2023-05-08T03:28:12;98241.22;;;21.17;49.02
53900;BME280;40509;32.858;-116.858;2023-05-08T03:30:42;98243.16;;;21.15;49.18
53900;BME280;40509;32.858;-116.858;2023-05-08T03:33:13;98241.06;;;21.18;49.13
53900;BME280;40509;32.858;-116.858;2023-05-08T03:35:41;98247.28;;;21.17;49.08
53900;BME280;40509;32.858;-116.858;2023-05-08T03:38:11;98248.28;;;21.16;49.09
53900;BME280;40509;32.858;-116.858;2023-05-08T03:40:39;98243.69;;;21.18;49.17
53900;BME280;40509;32.858;-116.858;2023-05-08T03:43:11;98250.75;;;21.18;49.16
53900;BME280;40509;32.858;-116.858;2023-05-08T03:45:39;98252.41;;;21.19;49.08
53900;BME280;40509;32.858;-116.858;2023-05-08T03:48:08;98257.66;;;21.19;48.97
53900;BME280;40509;32.858;-116.858;2023-05-08T03:50:37;98259.44;;;21.18;49.07
53900;BME280;40509;32.858;-116.858;2023-05-08T03:53:07;98257.66;;;21.19;48.95
53900;BME280;40509;32.858;-116.858;2023-05-08T03:55:35;98265.41;;;21.20;49.44
53900;BME280;40509;32.858;-116.858;2023-05-08T03:58:23;98269.53;;;21.23;48.93
53900;BME280;40509;32.858;-116.858;2023-05-08T04:01:07;98276.72;;;21.21;48.91
53900;BME280;40509;32.858;-116.858;2023-05-08T04:03:51;98281.81;;;21.22;49.05
53900;BME280;40509;32.858;-116.858;2023-05-08T04:09:33;98281.41;;;21.17;49.26
53900;BME280;40509;32.858;-116.858;2023-05-08T04:12:21;98284.72;;;21.19;49.16
53900;BME280;40509;32.858;-116.858;2023-05-08T04:14:59;98289.03;;;21.20;49.13
53900;BME280;40509;32.858;-116.858;2023-05-08T04:17:48;98287.06;;;21.22;49.84
53900;BME280;40509;32.858;-116.858;2023-05-08T04:20:24;98282.53;;;21.25;49.27
53900;BME280;40509;32.858;-116.858;2023-05-08T04:22:54;98285.97;;;21.25;49.03
53900;BME280;40509;32.858;-116.858;2023-05-08T04:25:23;98289.28;;;21.27;49.22
53900;BME280;40509;32.858;-116.858;2023-05-08T04:27:52;98281.69;;;21.24;49.04
53900;BME280;40509;32.858;-116.858;2023-05-08T04:30:22;98280.84;;;21.23;49.01
53900;BME280;40509;32.858;-116.858;2023-05-08T04:32:50;98281.69;;;21.24;48.93
53900;BME280;40509;32.858;-116.858;2023-05-08T04:35:18;98278.09;;;21.25;48.69
53900;BME280;40509;32.858;-116.858;2023-05-08T04:37:47;98282.53;;;21.25;48.79
53900;BME280;40509;32.858;-116.858;2023-05-08T04:40:15;98279.91;;;21.25;48.78
53900;BME280;40509;32.858;-116.858;2023-05-08T04:42:42;98278.78;;;21.27;48.70
53900;BME280;40509;32.858;-116.858;2023-05-08T04:45:13;98281.69;;;21.24;48.82
53900;BME280;40509;32.858;-116.858;2023-05-08T04:47:41;98269.91;;;21.28;48.87
53900;BME280;40509;32.858;-116.858;2023-05-08T04:50:10;98278.09;;;21.25;48.90
53900;BME280;40509;32.858;-116.858;2023-05-08T04:52:37;98279.59;;;21.28;48.94
53900;BME280;40509;32.858;-116.858;2023-05-08T04:55:06;98281.69;;;21.24;49.11
53900;BME280;40509;32.858;-116.858;2023-05-08T04:57:36;98277.81;;;21.18;49.73
53900;BME280;40509;32.858;-116.858;2023-05-08T05:00:03;98281.03;;;21.12;49.84
53900;BME280;40509;32.858;-116.858;2023-05-08T05:02:35;98278.66;;;21.09;50.42
53900;BME280;40509;32.858;-116.858;2023-05-08T05:05:02;98283.09;;;21.09;50.53
53900;BME280;40509;32.858;-116.858;2023-05-08T05:07:31;98284.19;;;21.06;51.31
53900;BME280;40509;32.858;-116.858;2023-05-08T05:09:59;98280.59;;;21.07;50.75
53900;BME280;40509;32.858;-116.858;2023-05-08T05:12:28;98275.06;;;21.10;50.52
53900;BME280;40509;32.858;-116.858;2023-05-08T05:14:55;98278.13;;;21.15;50.82
53900;BME280;40509;32.858;-116.858;2023-05-08T05:17:24;98274.22;;;21.19;50.55
53900;BME280;40509;32.858;-116.858;2023-05-08T05:19:51;98278.13;;;21.15;50.61
53900;BME280;40509;32.858;-116.858;2023-05-08T05:22:18;98271.47;;;21.21;50.89
53900;BME280;40509;32.858;-116.858;2023-05-08T05:24:46;98279.47;;;21.19;51.50
53900;BME280;40509;32.858;-116.858;2023-05-08T05:27:13;98276.88;;;21.19;51.45
53900;BME280;40509;32.858;-116.858;2023-05-08T05:29:40;98274.66;;;21.15;51.11
53900;BME280;40509;32.858;-116.858;2023-05-08T05:32:07;98282.25;;;21.18;50.54
53900;BME280;40509;32.858;-116.858;2023-05-08T05:34:37;98276.03;;;21.19;50.62
53900;BME280;40509;32.858;-116.858;2023-05-08T05:37:04;98277.81;;;21.18;50.59
53900;BME280;40509;32.858;-116.858;2023-05-08T05:39:32;98283.06;;;21.18;50.45
53900;BME280;40509;32.858;-116.858;2023-05-08T05:41:59;98283.06;;;21.18;50.24
53900;BME280;40509;32.858;-116.858;2023-05-08T05:44:27;98286.66;;;21.17;49.94
53900;BME280;40509;32.858;-116.858;2023-05-08T05:46:55;98283.22;;;21.17;50.02
53900;BME280;40509;32.858;-116.858;2023-05-08T05:49:26;98281.69;;;21.14;49.93
53900;BME280;40509;32.858;-116.858;2023-05-08T05:51:53;98280.03;;;21.13;49.91
53900;BME280;40509;32.858;-116.858;2023-05-08T05:54:20;98276.31;;;21.06;50.04
53900;BME280;40509;32.858;-116.858;2023-05-08T05:56:48;98276.31;;;21.06;49.84
53900;BME280;40509;32.858;-116.858;2023-05-08T05:59:15;98269.81;;;21.10;49.58
53900;BME280;40509;32.858;-116.858;2023-05-08T06:01:43;98268.84;;;21.11;49.63
53900;BME280;40509;32.858;-116.858;2023-05-08T06:04:11;98265.28;;;21.12;49.56
53900;BME280;40509;32.858;-116.858;2023-05-08T06:06:38;98262.66;;;21.12;49.39
53900;BME280;40509;32.858;-116.858;2023-05-08T06:09:06;98264.28;;;21.13;49.33
53900;BME280;40509;32.858;-116.858;2023-05-08T06:11:33;98263.47;;;21.13;49.19
53900;BME280;40509;32.858;-116.858;2023-05-08T06:14:01;98255.19;;;21.08;48.96
53900;BME280;40509;32.858;-116.858;2023-05-08T06:16:28;98260.44;;;21.08;49.02
53900;BME280;40509;32.858;-116.858;2023-05-08T06:18:56;98264.84;;;21.07;49.14
53900;BME280;40509;32.858;-116.858;2023-05-08T06:21:25;98257.28;;;21.04;49.16
53900;BME280;40509;32.858;-116.858;2023-05-08T06:23:54;98254.50;;;21.05;49.09
53900;BME280;40509;32.858;-116.858;2023-05-08T06:26:21;98252.41;;;21.09;48.98
53900;BME280;40509;32.858;-116.858;2023-05-08T06:28:48;98252.97;;;21.03;48.78
53900;BME280;40509;32.858;-116.858;2023-05-08T06:31:15;98255.06;;;20.99;48.85
53900;BME280;40509;32.858;-116.858;2023-05-08T06:33:42;98252.44;;;20.99;48.99
53900;BME280;40509;32.858;-116.858;2023-05-08T06:36:10;98249.41;;;21.04;48.95
53900;BME280;40509;32.858;-116.858;2023-05-08T06:38:37;98244.56;;;20.99;49.22
53900;BME280;40509;32.858;-116.858;2023-05-08T06:41:04;98240.97;;;21.00;48.93
53900;BME280;40509;32.858;-116.858;2023-05-08T06:43:31;98239.84;;;21.03;48.55
53900;BME280;40509;32.858;-116.858;2023-05-08T06:45:59;98237.53;;;21.00;48.99
53900;BME280;40509;32.858;-116.858;2023-05-08T06:48:26;98244.69;;;20.98;48.94
53900;BME280;40509;32.858;-116.858;2023-05-08T06:50:54;98240.53;;;21.05;48.55
53900;BME280;40509;32.858;-116.858;2023-05-08T06:53:22;98239.00;;;21.02;48.61
53900;BME280;40509;32.858;-116.858;2023-05-08T06:55:50;98232.13;;;21.01;48.48
53900;BME280;40509;32.858;-116.858;2023-05-08T06:58:17;98241.53;;;21.04;48.64
53900;BME280;40509;32.858;-116.858;2023-05-08T07:00:44;98238.06;;;21.03;48.70
53900;BME280;40509;32.858;-116.858;2023-05-08T07:03:12;98229.50;;;21.01;48.49
53900;BME280;40509;32.858;-116.858;2023-05-08T07:05:39;98227.84;;;21.00;48.36
53900;BME280;40509;32.858;-116.858;2023-05-08T07:08:06;98229.66;;;21.00;48.42
53900;BME280;40509;32.858;-116.858;2023-05-08T07:10:34;98221.63;;;21.01;48.38
53900;BME280;40509;32.858;-116.858;2023-05-08T07:13:01;98228.53;;;20.93;48.89
53900;BME280;40509;32.858;-116.858;2023-05-08T07:15:30;98229.91;;;20.97;48.48
53900;BME280;40509;32.858;-116.858;2023-05-08T07:17:57;98226.47;;;20.96;48.47
53900;BME280;40509;32.858;-116.858;2023-05-08T07:20:25;98227.03;;;21.00;48.22
53900;BME280;40509;32.858;-116.858;2023-05-08T07:22:52;98230.34;;;20.92;48.59
53900;BME280;40509;32.858;-116.858;2023-05-08T07:25:20;98231.84;;;20.95;48.54
53900;BME280;40509;32.858;-116.858;2023-05-08T07:27:47;98233.38;;;20.97;48.52
53900;BME280;40509;32.858;-116.858;2023-05-08T07:30:14;98223.13;;;20.94;48.38
53900;BME280;40509;32.858;-116.858;2023-05-08T07:32:41;98227.03;;;21.00;48.11
53900;BME280;40509;32.858;-116.858;2023-05-08T07:35:09;98218.75;;;20.95;48.55
53900;BME280;40509;32.858;-116.858;2023-05-08T07:37:38;98222.88;;;20.97;48.18
53900;BME280;40509;32.858;-116.858;2023-05-08T07:40:06;98217.38;;;20.91;48.37
53900;BME280;40509;32.858;-116.858;2023-05-08T07:42:41;98210.72;;;20.96;47.99
53900;BME280;40509;32.858;-116.858;2023-05-08T07:45:10;98214.31;;;20.85;48.44
53900;BME280;40509;32.858;-116.858;2023-05-08T07:47:47;98212.66;;;20.94;48.31
53900;BME280;40509;32.858;-116.858;2023-05-08T07:50:14;98210.59;;;20.88;48.21
53900;BME280;40509;32.858;-116.858;2023-05-08T07:52:41;98217.63;;;20.87;48.32
53900;BME280;40509;32.858;-116.858;2023-05-08T07:55:09;98220.13;;;20.89;48.14
53900;BME280;40509;32.858;-116.858;2023-05-08T07:57:37;98208.78;;;20.88;48.35
53900;BME280;40509;32.858;-116.858;2023-05-08T08:00:06;98216.81;;;20.87;48.20
53900;BME280;40509;32.858;-116.858;2023-05-08T08:02:43;98215.13;;;20.86;48.16
53900;BME280;40509;32.858;-116.858;2023-05-08T08:05:11;98224.13;;;20.83;48.26
53900;BME280;40509;32.858;-116.858;2023-05-08T08:07:38;98217.09;;;20.84;48.28
53900;BME280;40509;32.858;-116.858;2023-05-08T08:10:06;98211.84;;;20.84;48.31
53900;BME280;40509;32.858;-116.858;2023-05-08T08:12:34;98209.47;;;20.81;48.38
53900;BME280;40509;32.858;-116.858;2023-05-08T08:15:01;98210.47;;;20.80;48.28
53900;BME280;40509;32.858;-116.858;2023-05-08T08:17:30;98204.81;;;20.75;48.14
53900;BME280;40509;32.858;-116.858;2023-05-08T08:19:57;98203.00;;;20.75;48.52
53900;BME280;40509;32.858;-116.858;2023-05-08T08:22:25;98201.38;;;20.74;48.27
53900;BME280;40509;32.858;-116.858;2023-05-08T08:24:56;98194.16;;;20.76;48.31
53900;BME280;40509;32.858;-116.858;2023-05-08T08:27:23;98198.19;;;20.70;48.47
53900;BME280;40509;32.858;-116.858;2023-05-08T08:29:50;98191.97;;;20.71;48.42
53900;BME280;40509;32.858;-116.858;2023-05-08T08:32:17;98187.41;;;20.74;48.22
53900;BME280;40509;32.858;-116.858;2023-05-08T08:34:44;98181.47;;;20.71;48.37
53900;BME280;40509;32.858;-116.858;2023-05-08T08:37:12;98181.75;;;20.68;48.37
53900;BME280;40509;32.858;-116.858;2023-05-08T08:39:39;98179.81;;;20.70;48.36
53900;BME280;40509;32.858;-116.858;2023-05-08T08:42:06;98177.34;;;20.69;48.37
53900;BME280;40509;32.858;-116.858;2023-05-08T08:44:33;98185.72;;;20.63;48.38
53900;BME280;40509;32.858;-116.858;2023-05-08T08:47:01;98182.13;;;20.64;48.33
53900;BME280;40509;32.858;-116.858;2023-05-08T08:49:34;98185.06;;;20.70;48.15
53900;BME280;40509;32.858;-116.858;2023-05-08T08:52:06;98180.34;;;20.64;48.33
53900;BME280;40509;32.858;-116.858;2023-05-08T08:54:37;98169.84;;;20.64;48.60
53900;BME280;40509;32.858;-116.858;2023-05-08T08:57:08;98181.31;;;20.63;48.49
53900;BME280;40509;32.858;-116.858;2023-05-08T08:59:37;98179.38;;;20.65;48.39
53900;BME280;40509;32.858;-116.858;2023-05-08T09:02:09;98178.97;;;20.60;48.53
53900;BME280;40509;32.858;-116.858;2023-05-08T09:04:37;98179.81;;;20.61;48.30
53900;BME280;40509;32.858;-116.858;2023-05-08T09:07:05;98177.19;;;20.61;48.44
53900;BME280;40509;32.858;-116.858;2023-05-08T09:09:41;98173.72;;;20.60;48.33
53900;BME280;40509;32.858;-116.858;2023-05-08T09:12:11;98170.13;;;20.61;48.25
53900;BME280;40509;32.858;-116.858;2023-05-08T09:14:40;98168.75;;;20.57;48.29
53900;BME280;40509;32.858;-116.858;2023-05-08T09:17:08;98168.59;;;20.59;48.76
53900;BME280;40509;32.858;-116.858;2023-05-08T09:19:35;98167.78;;;20.58;48.30
53900;BME280;40509;32.858;-116.858;2023-05-08T09:22:03;98165.44;;;20.55;48.50
53900;BME280;40509;32.858;-116.858;2023-05-08T09:25:01;98167.22;;;20.54;48.43
53900;BME280;40509;32.858;-116.858;2023-05-08T09:27:30;98165.44;;;20.55;48.33
53900;BME280;40509;32.858;-116.858;2023-05-08T09:30:11;98159.38;;;20.54;48.29
53900;BME280;40509;32.858;-116.858;2023-05-08T09:32:42;98170.81;;;20.53;48.30
53900;BME280;40509;32.858;-116.858;2023-05-08T09:35:10;98171.50;;;20.55;48.40
53900;BME280;40509;32.858;-116.858;2023-05-08T09:37:40;98167.38;;;20.53;48.32
53900;BME280;40509;32.858;-116.858;2023-05-08T09:40:16;98163.94;;;20.52;48.39
53900;BME280;40509;32.858;-116.858;2023-05-08T09:42:44;98163.78;;;20.54;48.12
53900;BME280;40509;32.858;-116.858;2023-05-08T09:45:30;98166.56;;;20.52;48.24
53900;BME280;40509;32.858;-116.858;2023-05-08T09:47:58;98165.72;;;20.52;48.32
53900;BME280;40509;32.858;-116.858;2023-05-08T09:50:26;98156.31;;;20.49;48.30
53900;BME280;40509;32.858;-116.858;2023-05-08T09:52:53;98163.78;;;20.54;48.35
53900;BME280;40509;32.858;-116.858;2023-05-08T09:55:20;98162.56;;;20.48;48.31
53900;BME280;40509;32.858;-116.858;2023-05-08T09:57:56;98157.31;;;20.48;48.24
53900;BME280;40509;32.858;-116.858;2023-05-08T10:00:28;98159.09;;;20.48;48.25
53900;BME280;40509;32.858;-116.858;2023-05-08T10:03:02;98160.03;;;20.47;48.48
53900;BME280;40509;32.858;-116.858;2023-05-08T10:05:33;98159.66;;;20.42;48.43
53900;BME280;40509;32.858;-116.858;2023-05-08T10:08:22;98157.84;;;20.42;48.35
53900;BME280;40509;32.858;-116.858;2023-05-08T10:10:49;98163.09;;;20.42;48.40
53900;BME280;40509;32.858;-116.858;2023-05-08T10:13:17;98162.38;;;20.40;48.48
53900;BME280;40509;32.858;-116.858;2023-05-08T10:15:48;98160.47;;;20.42;48.11
53900;BME280;40509;32.858;-116.858;2023-05-08T10:18:23;98157.84;;;20.42;48.25
53900;BME280;40509;32.858;-116.858;2023-05-08T10:20:57;98167.63;;;20.40;48.32
53900;BME280;40509;32.858;-116.858;2023-05-08T10:23:28;98163.78;;;20.44;48.16
53900;BME280;40509;32.858;-116.858;2023-05-08T10:26:04;98161.44;;;20.41;48.46
53900;BME280;40509;32.858;-116.858;2023-05-08T10:31:09;98153.56;;;20.41;48.11
53900;BME280;40509;32.858;-116.858;2023-05-08T10:33:39;98145.16;;;20.37;48.17
53900;BME280;40509;32.858;-116.858;2023-05-08T10:36:07;98150.28;;;20.39;48.32
53900;BME280;40509;32.858;-116.858;2023-05-08T10:38:36;98152.19;;;20.37;48.24
53900;BME280;40509;32.858;-116.858;2023-05-08T10:41:04;98153.84;;;20.38;48.10
53900;BME280;40509;32.858;-116.858;2023-05-08T10:43:32;98152.91;;;20.39;48.06
53900;BME280;40509;32.858;-116.858;2023-05-08T10:46:08;98150.66;;;20.34;48.49
53900;BME280;40509;32.858;-116.858;2023-05-08T10:56:37;98153.16;;;20.36;48.04
53900;BME280;40509;32.858;-116.858;2023-05-08T10:59:05;98153.56;;;20.31;48.14
53900;BME280;40509;32.858;-116.858;2023-05-08T11:01:46;98148.34;;;20.31;48.48
53900;BME280;40509;32.858;-116.858;2023-05-08T11:04:22;98148.63;;;20.28;48.20
53900;BME280;40509;32.858;-116.858;2023-05-08T11:06:50;98146.81;;;20.29;48.27
53900;BME280;40509;32.858;-116.858;2023-05-08T11:09:28;98147.78;;;20.28;48.21
53900;BME280;40509;32.858;-116.858;2023-05-08T11:12:23;98151.25;;;20.28;48.34
53900;BME280;40509;32.858;-116.858;2023-05-08T11:15:05;98142.28;;;20.31;48.12
53900;BME280;40509;32.858;-116.858;2023-05-08T11:17:33;98143.50;;;20.27;48.17
53900;BME280;40509;32.858;-116.858;2023-05-08T11:20:05;98148.06;;;20.25;48.23
53900;BME280;40509;32.858;-116.858;2023-05-08T11:22:33;98145.16;;;20.28;48.13
53900;BME280;40509;32.858;-116.858;2023-05-08T11:25:09;98147.78;;;20.28;48.12
53900;BME280;40509;32.858;-116.858;2023-05-08T11:27:38;98148.88;;;20.25;48.15
53900;BME280;40509;32.858;-116.858;2023-05-08T11:35:53;98154.97;;;20.26;48.06
53900;BME280;40509;32.858;-116.858;2023-05-08T11:38:36;98160.47;;;20.23;48.13
53900;BME280;40509;32.858;-116.858;2023-05-08T11:41:08;98156.06;;;20.23;48.05
53900;BME280;40509;32.858;-116.858;2023-05-08T11:46:21;98156.47;;;20.18;48.35
53900;BME280;40509;32.858;-116.858;2023-05-08T11:48:57;98160.72;;;20.19;48.11
53900;BME280;40509;32.858;-116.858;2023-05-08T11:51:32;98159.91;;;20.19;48.26
53900;BME280;40509;32.858;-116.858;2023-05-08T11:54:02;98162.41;;;20.20;48.19
53900;BME280;40509;32.858;-116.858;2023-05-08T11:56:30;98164.44;;;20.17;48.25
53900;BME280;40509;32.858;-116.858;2023-05-08T11:59:05;98162.69;;;20.17;48.12
53900;BME280;40509;32.858;-116.858;2023-05-08T12:01:32;98170.53;;;20.17;48.43
53900;BME280;40509;32.858;-116.858;2023-05-08T12:04:10;98167.50;;;20.12;48.24
53900;BME280;40509;32.858;-116.858;2023-05-08T12:06:39;98164.06;;;20.12;48.37
53900;BME280;40509;32.858;-116.858;2023-05-08T12:09:13;98167.34;;;20.14;48.17
53900;BME280;40509;32.858;-116.858;2023-05-08T12:11:41;98167.22;;;20.15;48.23
53900;BME280;40509;32.858;-116.858;2023-05-08T12:14:11;98166.25;;;20.16;48.07
53900;BME280;40509;32.858;-116.858;2023-05-08T12:16:40;98163.22;;;20.11;48.44
53900;BME280;40509;32.858;-116.858;2023-05-08T12:19:12;98168.31;;;20.13;48.40
53900;BME280;40509;32.858;-116.858;2023-05-08T12:21:47;98168.44;;;20.11;48.30
53900;BME280;40509;32.858;-116.858;2023-05-08T12:24:15;98156.44;;;20.09;48.24
53900;BME280;40509;32.858;-116.858;2023-05-08T12:26:53;98167.63;;;20.11;48.47
53900;BME280;40509;32.858;-116.858;2023-05-08T12:29:23;98163.34;;;20.10;48.30
53900;BME280;40509;32.858;-116.858;2023-05-08T12:31:51;98172.16;;;20.09;48.28
53900;BME280;40509;32.858;-116.858;2023-05-08T12:34:19;98168.72;;;20.08;48.11
53900;BME280;40509;32.858;-116.858;2023-05-08T12:36:47;98166.94;;;20.09;48.36
53900;BME280;40509;32.858;-116.858;2023-05-08T12:39:16;98181.13;;;20.06;47.79
53900;BME280;40509;32.858;-116.858;2023-05-08T12:41:51;98183.63;;;20.08;48.08
53900;BME280;40509;32.858;-116.858;2023-05-08T12:44:23;98177.69;;;20.05;48.40
53900;BME280;40509;32.858;-116.858;2023-05-08T12:46:53;98178.50;;;20.06;48.00
53900;BME280;40509;32.858;-116.858;2023-05-08T12:49:25;98182.78;;;20.07;47.81
53900;BME280;40509;32.858;-116.858;2023-05-08T12:52:07;98187.47;;;20.03;48.03
53900;BME280;40509;32.858;-116.858;2023-05-08T12:54:36;98188.31;;;20.04;48.03
53900;BME280;40509;32.858;-116.858;2023-05-08T12:57:15;98193.56;;;20.04;48.07
53900;BME280;40509;32.858;-116.858;2023-05-08T12:59:44;98193.84;;;20.01;48.30
53900;BME280;40509;32.858;-116.858;2023-05-08T13:02:20;98191.22;;;20.01;48.29
53900;BME280;40509;32.858;-116.858;2023-05-08T13:04:53;98198.22;;;20.00;48.12
53900;BME280;40509;32.858;-116.858;2023-05-08T13:07:31;98200.16;;;19.98;48.28
53900;BME280;40509;32.858;-116.858;2023-05-08T13:09:59;98203.47;;;20.00;48.03
53900;BME280;40509;32.858;-116.858;2023-05-08T13:12:31;98205.28;;;20.00;48.10
53900;BME280;40509;32.858;-116.858;2023-05-08T13:14:58;98202.78;;;19.98;48.12
53900;BME280;40509;32.858;-116.858;2023-05-08T13:17:26;98206.09;;;20.00;47.99
53900;BME280;40509;32.858;-116.858;2023-05-08T13:19:54;98207.88;;;20.00;48.11
53900;BME280;40509;32.858;-116.858;2023-05-08T13:22:24;98200.16;;;19.98;48.00
53900;BME280;40509;32.858;-116.858;2023-05-08T13:24:52;98201.94;;;19.98;48.08
53900;BME280;40509;32.858;-116.858;2023-05-08T13:27:19;98209.94;;;19.96;47.99
53900;BME280;40509;32.858;-116.858;2023-05-08T13:29:47;98207.03;;;19.99;48.16
53900;BME280;40509;32.858;-116.858;2023-05-08T13:32:14;98204.84;;;19.95;48.10
53900;BME280;40509;32.858;-116.858;2023-05-08T13:34:41;98204.56;;;19.98;48.00
53900;BME280;40509;32.858;-116.858;2023-05-08T13:37:09;98203.88;;;19.96;47.83